logo
Search for airport 
image banner adimage banner adimage banner ad
image banner ad

FAKV - Koffyfontein

Located in Koffyfontein, South Africa

ICAO - FAKV, IATA -

Data provided by Airmate  

General information

Coordinates: S29°26'20" E24°59'20"
Elevation is 3996 feet MSL.
 
View others Airports in Free State

Operational data

Special qualification required
Current time UTC:
Current local time:
Weather at : FAKM - Kimberley ( 74 km )
METAR: FAKM 180700Z 02006KT CAVOK 18/14 Q1027
TAF: TAF FAKM 180600Z 1807/1818 01008KT CAVOK TX26/1813Z TN16/1807Z
View NOTAMs / SUP AIP / TFR affecting this airport [VIEW]
Communications frequencies: [VIEW]

Runways:

RWY identifierQFULength (ft)Width (ft)SurfaceLDA (ft)
16147°492198SAND
34327°492198SAND
1080°442966ASPH
28260°442966ASPH

Airport contact information

Address: Koffyfontein South Africa

Satellite view of FAKV